createdAt,value
2019-05-20T00:02:28.954Z,99.90
2019-05-20T00:05:22.551Z,99.90
2019-05-20T00:07:51.859Z,99.90
2019-05-20T00:10:22.783Z,99.90
2019-05-20T00:12:52.953Z,99.90
2019-05-20T00:15:27.274Z,99.90
2019-05-20T00:17:55.761Z,99.90
2019-05-20T00:20:25.784Z,99.90
2019-05-20T00:22:57.975Z,99.90
2019-05-20T00:25:28.979Z,99.90
2019-05-20T00:27:57.137Z,99.90
2019-05-20T00:33:17.875Z,99.90
2019-05-20T00:35:47.311Z,99.90
2019-05-20T00:38:42.411Z,99.90
2019-05-20T00:41:17.942Z,99.90
2019-05-20T00:43:46.418Z,99.90
2019-05-20T00:46:41.512Z,99.90
2019-05-20T00:49:13.034Z,99.90
2019-05-20T00:51:45.266Z,99.90
2019-05-20T00:54:14.489Z,99.90
2019-05-20T00:56:53.085Z,99.90
2019-05-20T00:59:25.600Z,99.90
2019-05-20T01:01:58.282Z,99.90
2019-05-20T01:04:28.429Z,99.90
2019-05-20T01:06:59.025Z,99.90
2019-05-20T01:09:31.764Z,99.90
2019-05-20T01:11:59.984Z,99.90
2019-05-20T01:14:33.537Z,99.90
2019-05-20T01:17:07.182Z,99.90
2019-05-20T01:19:55.202Z,99.90
2019-05-20T01:22:23.457Z,99.90
2019-05-20T01:24:56.442Z,99.90
2019-05-20T01:27:27.456Z,99.90
2019-05-20T01:29:58.465Z,99.90
2019-05-20T01:32:46.516Z,99.90
2019-05-20T01:35:15.014Z,99.90
2019-05-20T01:37:45.974Z,99.90
2019-05-20T01:40:33.808Z,99.90
2019-05-20T01:43:02.412Z,99.90
2019-05-20T01:45:30.786Z,99.90
2019-05-20T01:54:36.083Z,99.90
2019-05-20T01:57:04.309Z,99.90
2019-05-20T01:59:32.422Z,99.90
2019-05-20T02:04:48.848Z,99.90
2019-05-20T02:07:16.427Z,99.90
2019-05-20T02:09:43.971Z,99.90
2019-05-20T02:12:11.591Z,99.90
2019-05-20T02:14:44.808Z,99.90
2019-05-20T02:17:13.491Z,99.90
2019-05-20T02:19:41.063Z,99.90
2019-05-20T02:22:08.596Z,99.90
2019-05-20T02:24:36.074Z,99.90
2019-05-20T02:27:03.668Z,99.90
2019-05-20T02:29:32.428Z,99.90
2019-05-20T02:32:00.093Z,99.90
2019-05-20T02:34:28.606Z,99.90
2019-05-20T02:36:57.079Z,99.90
2019-05-20T02:39:26.709Z,99.90
2019-05-20T02:41:54.791Z,99.90
2019-05-20T02:44:22.467Z,99.90
2019-05-20T02:46:50.088Z,99.90
2019-05-20T02:49:17.802Z,99.90
2019-05-20T02:51:45.404Z,99.90
2019-05-20T02:54:12.898Z,99.90
2019-05-20T02:56:40.433Z,99.90
2019-05-20T02:59:07.933Z,99.90
2019-05-20T03:01:35.673Z,99.90
2019-05-20T03:04:11.562Z,99.90
2019-05-20T03:06:32.592Z,99.90
2019-05-20T03:09:00.075Z,99.90
2019-05-20T03:11:27.648Z,99.90
2019-05-20T03:13:57.880Z,99.90
2019-05-20T03:16:25.667Z,99.90
2019-05-20T03:18:53.233Z,99.90
2019-05-20T03:21:20.807Z,99.90
2019-05-20T03:23:48.639Z,99.90
2019-05-20T03:26:16.291Z,99.90
2019-05-20T03:28:43.969Z,99.90
2019-05-20T03:31:11.444Z,99.90
2019-05-20T03:33:39.024Z,99.90
2019-05-20T03:36:07.797Z,99.90
2019-05-20T03:38:35.350Z,99.90
2019-05-20T03:41:02.854Z,99.90
2019-05-20T03:43:30.467Z,99.90
2019-05-20T03:45:58.149Z,99.90
2019-05-20T03:48:25.987Z,99.90
2019-05-20T03:50:54.826Z,99.90
2019-05-20T03:53:22.413Z,99.90
2019-05-20T03:55:50.022Z,99.90
2019-05-20T03:58:20.601Z,99.90
2019-05-20T04:00:48.208Z,99.90
2019-05-20T04:03:16.062Z,99.90
2019-05-20T04:05:44.406Z,99.90
2019-05-20T04:08:12.264Z,99.90
2019-05-20T04:10:40.033Z,99.90
2019-05-20T04:13:07.890Z,99.90
2019-05-20T04:15:35.508Z,99.90
2019-05-20T04:18:04.136Z,99.90
2019-05-20T04:20:31.821Z,99.90
2019-05-20T04:22:59.434Z,99.90
2019-05-20T04:25:27.113Z,99.90
2019-05-20T04:27:58.730Z,99.90
2019-05-20T04:30:26.282Z,99.90
2019-05-20T04:32:53.698Z,99.90
2019-05-20T04:35:23.652Z,99.90
2019-05-20T04:37:51.262Z,99.90
2019-05-20T04:40:18.871Z,99.90
2019-05-20T04:42:46.602Z,99.90
2019-05-20T04:45:14.642Z,99.90
2019-05-20T04:48:04.414Z,99.90
2019-05-20T04:50:32.985Z,99.90
2019-05-20T04:53:00.640Z,99.90
2019-05-20T04:55:28.239Z,99.90
2019-05-20T04:57:56.110Z,99.90
2019-05-20T05:00:48.788Z,99.90
2019-05-20T05:03:17.735Z,99.90
2019-05-20T05:05:46.058Z,99.90
2019-05-20T05:08:14.222Z,99.90
2019-05-20T05:10:42.928Z,99.90
2019-05-20T05:13:10.491Z,99.90
2019-05-20T05:15:37.968Z,99.90
2019-05-20T05:18:05.550Z,99.90
2019-05-20T05:20:33.335Z,99.90
2019-05-20T05:23:01.188Z,99.90
2019-05-20T05:25:29.096Z,99.90
2019-05-20T05:27:56.899Z,99.90
2019-05-20T05:30:24.407Z,99.90
2019-05-20T05:32:51.921Z,99.90
2019-05-20T05:35:19.427Z,99.90
2019-05-20T05:37:47.365Z,99.90
2019-05-20T05:40:15.444Z,99.90
2019-05-20T05:42:42.905Z,99.90
2019-05-20T05:45:12.194Z,99.90
2019-05-20T05:47:39.680Z,99.90
2019-05-20T05:50:08.599Z,99.90
2019-05-20T05:52:35.944Z,99.90
2019-05-20T05:55:03.657Z,99.90
2019-05-20T05:57:31.116Z,99.90
2019-05-20T05:59:58.628Z,99.90
2019-05-20T06:02:26.082Z,99.90
2019-05-20T06:04:53.574Z,99.90
2019-05-20T06:07:21.597Z,99.90
2019-05-20T06:09:49.161Z,99.90
2019-05-20T06:12:16.744Z,99.90
2019-05-20T06:14:44.413Z,99.90
2019-05-20T06:17:12.273Z,99.90
2019-05-20T06:19:39.869Z,99.90
2019-05-20T06:22:07.310Z,99.90
2019-05-20T06:24:34.738Z,99.90
2019-05-20T06:27:02.206Z,99.90
2019-05-20T06:29:29.687Z,99.90
2019-05-20T06:31:57.699Z,99.90
2019-05-20T06:34:25.508Z,99.90
2019-05-20T06:36:54.989Z,99.90
2019-05-20T06:39:22.368Z,99.90
2019-05-20T06:41:49.706Z,99.90
2019-05-20T06:44:17.282Z,99.90
2019-05-20T06:46:45.227Z,99.90
2019-05-20T06:49:12.778Z,99.90
2019-05-20T06:51:40.469Z,99.90
2019-05-20T06:54:08.156Z,99.90
2019-05-20T06:56:35.915Z,99.90
2019-05-20T06:59:04.613Z,99.90
2019-05-20T07:01:32.435Z,99.90
2019-05-20T07:04:00.100Z,99.90
2019-05-20T07:06:44.884Z,99.90
2019-05-20T07:08:57.286Z,99.90
2019-05-20T07:11:25.044Z,99.90
2019-05-20T07:13:53.026Z,99.90
2019-05-20T07:16:20.399Z,99.90
2019-05-20T07:18:49.703Z,99.90
2019-05-20T07:21:17.361Z,99.90
2019-05-20T07:23:46.124Z,99.90
2019-05-20T07:26:13.794Z,99.90
2019-05-20T07:28:43.641Z,99.90
2019-05-20T07:31:11.338Z,99.90
2019-05-20T07:33:38.918Z,99.90
2019-05-20T07:36:09.873Z,99.90
2019-05-20T07:38:35.864Z,99.90
2019-05-20T07:41:03.408Z,99.90
2019-05-20T07:43:31.087Z,99.90
2019-05-20T07:45:59.984Z,99.90
2019-05-20T07:48:27.892Z,99.90
2019-05-20T07:51:15.623Z,99.90
2019-05-20T07:53:43.581Z,99.90
2019-05-20T07:56:15.339Z,99.90
2019-05-20T07:58:47.448Z,99.90
2019-05-20T08:01:15.179Z,99.90
2019-05-20T08:03:42.727Z,99.90
2019-05-20T08:06:10.667Z,99.90
2019-05-20T08:08:38.329Z,99.90
2019-05-20T08:11:05.871Z,99.90
2019-05-20T08:13:33.338Z,99.90
2019-05-20T08:16:01.001Z,99.90
2019-05-20T08:18:28.538Z,99.90
2019-05-20T08:20:56.484Z,99.90
2019-05-20T08:23:24.353Z,99.90
2019-05-20T08:25:51.926Z,99.90
2019-05-20T08:28:19.554Z,99.90
2019-05-20T08:30:49.066Z,99.90
2019-05-20T08:33:16.513Z,99.90
2019-05-20T08:35:44.027Z,99.90
2019-05-20T08:38:12.684Z,99.90
2019-05-20T08:40:41.355Z,99.90
2019-05-20T08:43:09.682Z,99.90
2019-05-20T08:45:37.436Z,99.90
2019-05-20T08:48:04.999Z,99.90
2019-05-20T08:50:32.530Z,99.90
2019-05-20T08:53:00.001Z,99.90
2019-05-20T08:55:27.509Z,99.90
2019-05-20T08:58:00.403Z,99.90
2019-05-20T09:00:28.065Z,99.90
2019-05-20T09:02:56.028Z,99.90
2019-05-20T09:05:23.535Z,99.90
2019-05-20T09:08:02.195Z,99.90
2019-05-20T09:10:20.412Z,99.90
2019-05-20T09:12:47.894Z,99.90
2019-05-20T09:15:16.056Z,99.90
2019-05-20T09:17:44.200Z,99.80
2019-05-20T09:20:12.179Z,99.50
2019-05-20T09:22:39.615Z,99.20
2019-05-20T09:25:08.094Z,98.90
2019-05-20T09:27:37.138Z,98.90
2019-05-20T09:30:06.135Z,98.70
2019-05-20T09:32:35.449Z,98.50
2019-05-20T09:35:04.253Z,98.30
2019-05-20T09:37:33.323Z,98.10
2019-05-20T09:40:00.982Z,97.80
2019-05-20T09:42:28.503Z,97.80
2019-05-20T09:44:57.135Z,98.00
2019-05-20T09:47:24.626Z,97.90
2019-05-20T09:49:52.326Z,97.60
2019-05-20T09:52:19.892Z,97.20
2019-05-20T09:54:47.598Z,96.90
2019-05-20T09:57:15.012Z,96.80
2019-05-20T09:59:43.825Z,96.60
2019-05-20T10:02:13.864Z,96.10
2019-05-20T10:04:41.340Z,95.80
2019-05-20T10:07:08.952Z,95.90
2019-05-20T10:09:36.482Z,96.10
2019-05-20T10:12:23.661Z,96.20
2019-05-20T10:14:52.838Z,95.70
2019-05-20T10:17:20.530Z,95.60
2019-05-20T10:19:48.076Z,95.30
2019-05-20T10:22:15.666Z,95.00
2019-05-20T10:24:43.127Z,94.80
2019-05-20T10:27:10.601Z,94.70
2019-05-20T10:29:37.990Z,94.50
2019-05-20T10:32:05.457Z,94.10
2019-05-20T10:34:32.914Z,93.60
2019-05-20T10:37:00.431Z,93.50
2019-05-20T10:39:27.987Z,93.50
2019-05-20T10:41:56.130Z,93.50
2019-05-20T10:44:23.852Z,93.40
2019-05-20T10:46:51.482Z,93.20
2019-05-20T10:49:19.112Z,93.10
2019-05-20T10:51:46.684Z,93.10
2019-05-20T10:54:14.293Z,92.90
2019-05-20T10:56:41.963Z,92.60
2019-05-20T10:59:11.946Z,92.10
2019-05-20T11:01:38.930Z,91.90
2019-05-20T11:04:06.470Z,91.60
2019-05-20T11:06:33.986Z,91.30
2019-05-20T11:09:13.612Z,91.30
2019-05-20T11:11:31.383Z,91.30
2019-05-20T11:13:59.123Z,91.20
2019-05-20T11:16:26.636Z,91.30
2019-05-20T11:18:55.369Z,91.30
2019-05-20T11:21:22.879Z,91.20
2019-05-20T11:23:50.750Z,90.90
2019-05-20T11:26:18.054Z,90.80
2019-05-20T11:28:45.705Z,90.60
2019-05-20T11:31:13.058Z,90.40
2019-05-20T11:33:40.587Z,90.10
2019-05-20T11:36:08.098Z,89.90
2019-05-20T11:38:35.489Z,89.90
2019-05-20T11:41:03.121Z,89.30
2019-05-20T11:43:30.645Z,89.70
2019-05-20T11:45:58.186Z,89.50
2019-05-20T11:48:25.656Z,89.70
2019-05-20T11:50:53.177Z,89.40
2019-05-20T11:53:20.940Z,89.10
2019-05-20T11:55:49.584Z,88.50
2019-05-20T11:58:17.222Z,88.20
2019-05-20T12:00:47.495Z,87.60
2019-05-20T12:03:14.947Z,87.10
2019-05-20T12:05:42.610Z,86.60
2019-05-20T12:08:10.250Z,86.30
2019-05-20T12:10:37.711Z,86.20
2019-05-20T12:13:05.444Z,86.10
2019-05-20T12:15:33.107Z,85.60
2019-05-20T12:18:00.578Z,85.20
2019-05-20T12:20:28.091Z,84.50
2019-05-20T12:22:55.994Z,83.10
2019-05-20T12:25:23.504Z,83.10
2019-05-20T12:27:51.006Z,82.90
2019-05-20T12:30:18.903Z,82.30
2019-05-20T12:32:46.404Z,81.70
2019-05-20T12:35:14.660Z,81.70
2019-05-20T12:37:45.541Z,81.50
2019-05-20T12:40:12.859Z,80.70
2019-05-20T12:42:40.330Z,80.40
2019-05-20T12:45:08.678Z,80.50
2019-05-20T12:47:36.172Z,80.30
2019-05-20T12:50:04.303Z,79.50
2019-05-20T12:52:31.571Z,79.20
2019-05-20T12:55:07.853Z,79.70
2019-05-20T12:57:28.612Z,79.60
2019-05-20T13:00:15.971Z,79.30
2019-05-20T13:02:43.506Z,79.50
2019-05-20T13:05:11.326Z,79.70
2019-05-20T13:07:39.027Z,79.70
2019-05-20T13:10:26.527Z,79.50
2019-05-20T13:12:38.743Z,78.90
2019-05-20T13:15:07.114Z,78.80
2019-05-20T13:17:34.677Z,78.90
2019-05-20T13:20:02.246Z,78.80
2019-05-20T13:22:29.697Z,78.40
2019-05-20T13:24:57.209Z,78.30
2019-05-20T13:27:24.791Z,78.40
2019-05-20T13:29:52.361Z,78.10
2019-05-20T13:32:20.015Z,77.90
2019-05-20T13:34:47.459Z,77.40
2019-05-20T13:37:14.785Z,77.50
2019-05-20T13:39:42.999Z,77.80
2019-05-20T13:42:10.563Z,77.80
2019-05-20T13:44:38.028Z,77.40
2019-05-20T13:47:05.501Z,77.10
2019-05-20T13:49:33.264Z,77.10
2019-05-20T13:52:00.749Z,77.10
2019-05-20T13:54:28.347Z,77.10
2019-05-20T13:56:55.797Z,77.00
2019-05-20T13:59:23.365Z,76.50
2019-05-20T14:01:50.914Z,76.30
2019-05-20T14:04:18.471Z,76.60
2019-05-20T14:06:45.909Z,75.90
2019-05-20T14:09:13.444Z,75.40
2019-05-20T14:11:40.907Z,75.30
2019-05-20T14:14:08.697Z,75.60
2019-05-20T14:16:36.113Z,75.60
2019-05-20T14:19:03.565Z,75.00
2019-05-20T14:21:31.284Z,74.70
2019-05-20T14:23:58.799Z,74.20
2019-05-20T14:26:26.354Z,73.60
2019-05-20T14:28:53.966Z,73.10
2019-05-20T14:31:21.490Z,72.70
2019-05-20T14:33:48.801Z,72.50
2019-05-20T14:36:37.931Z,72.70
2019-05-20T14:38:47.295Z,72.80
2019-05-20T14:41:21.725Z,73.10
2019-05-20T14:43:44.295Z,74.10
2019-05-20T14:46:11.827Z,73.90
2019-05-20T14:48:39.288Z,74.00
2019-05-20T14:51:06.785Z,74.00
2019-05-20T14:53:34.174Z,73.80
2019-05-20T14:56:01.636Z,74.00
2019-05-20T14:58:29.338Z,74.30
2019-05-20T15:01:01.935Z,75.10
2019-05-20T15:03:29.550Z,74.50
2019-05-20T15:05:57.088Z,74.90
2019-05-20T15:08:24.658Z,75.00
2019-05-20T15:10:52.279Z,75.20
2019-05-20T15:13:19.757Z,75.30
2019-05-20T15:15:50.222Z,75.80
2019-05-20T15:18:17.698Z,75.30
2019-05-20T15:20:45.025Z,75.50
2019-05-20T15:23:12.494Z,76.00
2019-05-20T15:25:39.935Z,75.70
2019-05-20T15:28:07.553Z,75.60
2019-05-20T15:30:35.179Z,76.00
2019-05-20T15:33:03.073Z,74.80
2019-05-20T15:35:30.851Z,74.90
2019-05-20T15:38:08.102Z,75.00
2019-05-20T15:40:35.991Z,75.10
2019-05-20T15:45:54.985Z,75.60
2019-05-20T15:48:21.607Z,75.80
2019-05-20T15:50:49.911Z,75.90
2019-05-20T15:53:17.939Z,76.30
2019-05-20T15:55:45.540Z,76.60
2019-05-20T15:58:13.237Z,76.70
2019-05-20T16:00:40.831Z,76.80
2019-05-20T16:03:08.455Z,76.80
2019-05-20T16:05:36.294Z,76.90
2019-05-20T16:08:04.080Z,76.40
2019-05-20T16:10:31.592Z,76.10
2019-05-20T16:13:01.639Z,75.90
2019-05-20T16:15:29.185Z,75.30
2019-05-20T16:17:57.964Z,75.20
2019-05-20T16:20:25.439Z,74.80
2019-05-20T16:22:52.785Z,72.90
2019-05-20T16:25:20.446Z,70.20
2019-05-20T16:27:47.953Z,66.50
2019-05-20T16:30:15.829Z,62.90
2019-05-20T16:32:43.241Z,60.30
2019-05-20T16:35:11.306Z,58.90
2019-05-20T16:37:39.089Z,57.70
2019-05-20T16:40:08.456Z,57.00
2019-05-20T16:42:37.537Z,55.90
2019-05-20T16:45:05.798Z,55.80
2019-05-20T16:47:33.375Z,55.00
2019-05-20T16:50:00.902Z,54.00
2019-05-20T16:52:28.535Z,53.20
2019-05-20T16:54:57.170Z,51.90
2019-05-20T16:57:24.784Z,50.60
2019-05-20T16:59:52.277Z,50.00
2019-05-20T17:02:19.777Z,49.70
2019-05-20T17:04:50.222Z,50.80
2019-05-20T17:07:17.773Z,51.00
2019-05-20T17:09:46.294Z,52.00
2019-05-20T17:12:13.831Z,52.90
2019-05-20T17:14:41.267Z,52.80
2019-05-20T17:17:08.958Z,53.10
2019-05-20T17:19:36.426Z,53.50
2019-05-20T17:22:04.587Z,53.70
2019-05-20T17:24:32.290Z,54.90
2019-05-20T17:26:59.707Z,55.60
2019-05-20T17:29:27.169Z,56.20
2019-05-20T17:31:54.922Z,56.20
2019-05-20T17:34:22.565Z,56.20
2019-05-20T17:36:50.107Z,56.10
2019-05-20T17:39:17.759Z,55.60
2019-05-20T17:41:47.760Z,55.00
2019-05-20T17:44:15.397Z,55.10
2019-05-20T17:46:42.785Z,55.10
2019-05-20T17:49:10.352Z,55.00
2019-05-20T17:51:38.018Z,55.10
2019-05-20T17:54:07.078Z,54.60
2019-05-20T17:56:34.576Z,55.70
2019-05-20T17:59:05.084Z,57.00
2019-05-20T18:01:33.677Z,57.60
2019-05-20T18:04:01.581Z,58.70
2019-05-20T18:06:29.239Z,59.90
2019-05-20T18:08:59.031Z,60.70
2019-05-20T18:11:26.603Z,61.60
2019-05-20T18:13:53.942Z,62.50
2019-05-20T18:16:21.550Z,63.10
2019-05-20T18:18:49.357Z,64.50
2019-05-20T18:21:18.235Z,64.50
2019-05-20T18:23:47.323Z,65.20
2019-05-20T18:26:14.875Z,65.80
2019-05-20T18:28:42.416Z,66.70
2019-05-20T18:31:09.885Z,67.40
2019-05-20T18:33:38.449Z,68.30
2019-05-20T18:36:06.355Z,68.90
2019-05-20T18:38:34.125Z,69.70
2019-05-20T18:41:13.734Z,70.50
2019-05-20T18:43:43.460Z,71.30
2019-05-20T18:46:11.433Z,72.10
2019-05-20T18:48:38.825Z,72.70
2019-05-20T18:51:06.357Z,73.30
2019-05-20T18:53:33.997Z,73.90
2019-05-20T18:56:01.785Z,74.60
2019-05-20T18:58:29.550Z,75.40
2019-05-20T19:00:57.054Z,76.20
2019-05-20T19:03:25.024Z,77.00
2019-05-20T19:05:52.790Z,77.90
2019-05-20T19:08:20.433Z,78.80
2019-05-20T19:10:48.079Z,79.50
2019-05-20T19:13:15.722Z,80.20
2019-05-20T19:15:43.249Z,80.90
2019-05-20T19:18:10.898Z,81.60
2019-05-20T19:20:38.285Z,82.30
2019-05-20T19:23:05.834Z,83.00
2019-05-20T19:25:37.632Z,83.80
2019-05-20T19:28:02.557Z,84.30
2019-05-20T19:30:30.242Z,85.10
2019-05-20T19:32:57.713Z,85.70
2019-05-20T19:35:25.477Z,86.40
2019-05-20T19:37:53.409Z,87.00
2019-05-20T19:40:21.049Z,87.90
2019-05-20T19:42:48.977Z,88.60
2019-05-20T19:45:16.957Z,89.40
2019-05-20T19:47:44.645Z,90.00
2019-05-20T19:50:12.912Z,90.40
2019-05-20T19:52:40.574Z,90.70
2019-05-20T19:55:08.727Z,91.10
2019-05-20T19:57:36.259Z,91.50
2019-05-20T20:00:06.182Z,91.80
2019-05-20T20:02:35.112Z,92.20
2019-05-20T20:05:03.651Z,92.40
2019-05-20T20:07:31.322Z,92.90
2019-05-20T20:09:58.932Z,93.10
2019-05-20T20:12:26.393Z,93.50
2019-05-20T20:14:54.049Z,93.60
2019-05-20T20:17:24.051Z,93.90
2019-05-20T20:19:51.622Z,94.10
2019-05-20T20:22:19.363Z,94.50
2019-05-20T20:24:47.667Z,94.60
2019-05-20T20:27:15.114Z,94.80
2019-05-20T20:29:42.737Z,95.20
2019-05-20T20:32:10.333Z,95.40
2019-05-20T20:34:38.009Z,95.60
2019-05-20T20:37:05.509Z,95.80
2019-05-20T20:39:34.484Z,96.10
2019-05-20T20:42:02.736Z,96.40
2019-05-20T20:44:31.167Z,96.50
2019-05-20T20:46:59.199Z,96.80
2019-05-20T20:49:28.622Z,96.90
2019-05-20T20:51:58.718Z,97.40
2019-05-20T20:54:28.119Z,97.30
2019-05-20T20:56:56.158Z,97.50
2019-05-20T20:59:24.446Z,97.70
2019-05-20T21:01:56.720Z,97.80
2019-05-20T21:04:22.202Z,98.00
2019-05-20T21:06:50.712Z,98.30
2019-05-20T21:09:18.931Z,98.30
2019-05-20T21:11:48.598Z,98.40
2019-05-20T21:14:17.316Z,98.60
2019-05-20T21:16:45.788Z,98.70
2019-05-20T21:19:13.645Z,98.60
2019-05-20T21:21:41.163Z,98.70
2019-05-20T21:24:10.122Z,98.70
2019-05-20T21:26:37.576Z,98.90
2019-05-20T21:29:04.915Z,98.80
2019-05-20T21:31:32.412Z,98.90
2019-05-20T21:33:59.966Z,99.00
2019-05-20T21:36:27.655Z,99.10
2019-05-20T21:38:55.087Z,99.10
2019-05-20T21:41:22.476Z,99.20
2019-05-20T21:43:49.870Z,99.30
2019-05-20T21:46:17.438Z,99.40
2019-05-20T21:48:44.974Z,99.40
2019-05-20T21:51:12.531Z,99.50
2019-05-20T21:53:40.127Z,99.60
2019-05-20T21:56:09.731Z,99.60
2019-05-20T21:58:37.357Z,99.70
2019-05-20T22:01:06.025Z,99.70
2019-05-20T22:03:33.625Z,99.80
2019-05-20T22:06:01.212Z,99.80
2019-05-20T22:08:28.789Z,99.80
2019-05-20T22:10:56.297Z,99.90
2019-05-20T22:13:23.787Z,99.90
2019-05-20T22:15:51.442Z,99.90
2019-05-20T22:18:18.963Z,99.90
2019-05-20T22:20:46.985Z,99.90
2019-05-20T22:23:39.543Z,99.90
2019-05-20T22:26:08.300Z,99.90
2019-05-20T22:28:35.886Z,99.90
2019-05-20T22:31:03.534Z,99.90
2019-05-20T22:33:40.868Z,99.90
2019-05-20T22:36:00.438Z,99.90
2019-05-20T22:38:27.895Z,99.90
2019-05-20T22:40:55.557Z,99.90
2019-05-20T22:43:23.136Z,99.90
2019-05-20T22:45:50.774Z,99.90
2019-05-20T22:48:18.399Z,99.90
2019-05-20T22:50:48.791Z,99.90
2019-05-20T22:53:15.785Z,99.90
2019-05-20T22:55:43.346Z,99.90
2019-05-20T22:58:10.854Z,99.90
2019-05-20T23:00:38.365Z,99.90
2019-05-20T23:03:06.115Z,99.90
2019-05-20T23:05:33.702Z,99.90
2019-05-20T23:08:01.269Z,99.90
2019-05-20T23:10:30.610Z,99.90
2019-05-20T23:12:59.074Z,99.90
2019-05-20T23:15:26.725Z,99.90
2019-05-20T23:17:54.315Z,99.90
2019-05-20T23:20:21.904Z,99.90
2019-05-20T23:22:49.643Z,99.90
2019-05-20T23:25:17.147Z,99.90
2019-05-20T23:27:44.583Z,99.90
2019-05-20T23:30:12.686Z,99.90
2019-05-20T23:32:40.194Z,99.90
2019-05-20T23:35:07.875Z,99.90
2019-05-20T23:37:35.449Z,99.90
2019-05-20T23:40:03.389Z,99.90
2019-05-20T23:42:30.912Z,99.90
2019-05-20T23:44:58.380Z,99.90
2019-05-20T23:47:26.058Z,99.90
2019-05-20T23:49:53.492Z,99.90
2019-05-20T23:52:21.018Z,99.90
2019-05-20T23:54:48.483Z,99.90
2019-05-20T23:57:16.180Z,99.90
2019-05-20T23:59:43.871Z,99.90
